createdAt,value
2019-05-29T00:00:18.887Z,17.59
2019-05-29T00:02:50.391Z,17.64
2019-05-29T00:05:19.940Z,17.62
2019-05-29T00:07:49.365Z,17.48
2019-05-29T00:10:19.034Z,17.46
2019-05-29T00:12:48.371Z,17.33
2019-05-29T00:15:18.726Z,17.26
2019-05-29T00:17:48.116Z,17.24
2019-05-29T00:20:18.662Z,17.19
2019-05-29T00:22:48.461Z,17.12
2019-05-29T00:25:18.856Z,17.05
2019-05-29T00:27:48.349Z,17.06
2019-05-29T00:30:18.924Z,17.08
2019-05-29T00:32:48.309Z,17.05
2019-05-29T00:35:17.720Z,17.02
2019-05-29T00:37:47.177Z,17.01
2019-05-29T00:40:17.098Z,17.03
2019-05-29T00:42:46.615Z,17.08
2019-05-29T00:45:17.595Z,17.01
2019-05-29T00:47:47.172Z,17.06
2019-05-29T00:50:16.741Z,17.05
2019-05-29T00:52:46.107Z,16.98
2019-05-29T00:55:16.744Z,16.95
2019-05-29T00:57:46.360Z,16.90
2019-05-29T01:00:17.483Z,16.83
2019-05-29T01:02:47.068Z,16.83
2019-05-29T01:05:18.065Z,16.81
2019-05-29T01:07:47.592Z,16.82
2019-05-29T01:10:18.794Z,16.83
2019-05-29T01:12:48.267Z,16.79
2019-05-29T01:15:18.083Z,16.83
2019-05-29T01:17:47.486Z,16.85
2019-05-29T01:20:18.085Z,16.81
2019-05-29T01:22:47.563Z,16.76
2019-05-29T01:25:18.782Z,16.66
2019-05-29T01:27:48.441Z,16.75
2019-05-29T01:30:19.232Z,16.73
2019-05-29T01:32:48.800Z,16.70
2019-05-29T01:35:20.025Z,16.60
2019-05-29T01:37:49.737Z,16.56
2019-05-29T01:40:24.493Z,16.51
2019-05-29T01:42:50.403Z,16.50
2019-05-29T01:45:19.978Z,16.48
2019-05-29T01:47:49.373Z,16.47
2019-05-29T01:50:19.641Z,16.44
2019-05-29T01:52:49.101Z,16.46
2019-05-29T01:55:19.818Z,16.49
2019-05-29T01:57:49.253Z,16.45
2019-05-29T02:00:19.912Z,16.51
2019-05-29T02:02:49.542Z,16.55
2019-05-29T02:05:20.004Z,16.60
2019-05-29T02:07:49.478Z,16.59
2019-05-29T02:10:19.886Z,16.60
2019-05-29T02:12:49.640Z,16.65
2019-05-29T02:15:31.245Z,16.58
2019-05-29T02:17:51.726Z,16.49
2019-05-29T02:20:21.283Z,16.59
2019-05-29T02:22:50.646Z,16.53
2019-05-29T02:25:22.388Z,16.55
2019-05-29T02:27:54.159Z,16.58
2019-05-29T02:30:27.841Z,16.43
2019-05-29T02:32:55.988Z,16.43
2019-05-29T02:35:27.428Z,16.45
2019-05-29T02:37:56.596Z,16.36
2019-05-29T02:40:28.051Z,16.14
2019-05-29T02:42:57.270Z,16.14
2019-05-29T02:45:50.263Z,16.07
2019-05-29T02:47:57.763Z,16.17
2019-05-29T02:50:28.788Z,16.18
2019-05-29T02:52:58.254Z,16.17
2019-05-29T02:55:28.913Z,15.97
2019-05-29T02:57:58.526Z,15.90
2019-05-29T03:00:53.769Z,16.03
2019-05-29T03:03:26.753Z,16.11
2019-05-29T03:05:56.062Z,16.08
2019-05-29T03:08:27.161Z,16.12
2019-05-29T03:10:56.577Z,16.15
2019-05-29T03:13:27.582Z,16.01
2019-05-29T03:16:09.577Z,16.07
2019-05-29T03:18:30.198Z,16.04
2019-05-29T03:20:59.811Z,16.07
2019-05-29T03:23:30.756Z,16.10
2019-05-29T03:26:00.407Z,16.11
2019-05-29T03:28:30.042Z,16.21
2019-05-29T03:31:00.060Z,16.04
2019-05-29T03:33:36.177Z,15.98
2019-05-29T03:36:00.495Z,16.12
2019-05-29T03:38:30.373Z,16.04
2019-05-29T03:40:59.957Z,16.33
2019-05-29T03:43:31.193Z,16.46
2019-05-29T03:46:00.429Z,16.51
2019-05-29T03:48:30.197Z,16.63
2019-05-29T03:51:01.029Z,16.72
2019-05-29T03:53:31.595Z,16.81
2019-05-29T03:56:01.603Z,16.91
2019-05-29T03:58:32.939Z,16.96
2019-05-29T04:01:02.290Z,17.04
2019-05-29T04:03:33.465Z,17.10
2019-05-29T04:06:03.047Z,17.15
2019-05-29T04:08:33.583Z,17.20
2019-05-29T04:11:03.985Z,17.11
2019-05-29T04:13:34.072Z,17.26
2019-05-29T04:16:04.797Z,17.42
2019-05-29T04:18:35.952Z,17.50
2019-05-29T04:21:05.513Z,17.53
2019-05-29T04:23:36.441Z,17.51
2019-05-29T04:26:08.667Z,17.60
2019-05-29T04:28:39.033Z,17.72
2019-05-29T04:31:08.722Z,17.67
2019-05-29T04:33:38.949Z,17.76
2019-05-29T04:36:08.487Z,17.84
2019-05-29T04:38:40.194Z,17.93
2019-05-29T04:41:09.003Z,18.00
2019-05-29T04:43:39.828Z,17.99
2019-05-29T04:46:09.529Z,18.06
2019-05-29T04:48:40.440Z,18.14
2019-05-29T04:51:10.008Z,18.10
2019-05-29T04:53:39.982Z,18.05
2019-05-29T04:56:09.582Z,18.03
2019-05-29T04:58:39.109Z,18.00
2019-05-29T05:01:08.520Z,18.04
2019-05-29T05:03:39.045Z,18.04
2019-05-29T05:06:08.864Z,18.05
2019-05-29T05:08:39.546Z,18.14
2019-05-29T05:11:10.761Z,18.10
2019-05-29T05:13:40.194Z,18.08
2019-05-29T05:16:09.577Z,18.06
2019-05-29T05:18:40.238Z,18.07
2019-05-29T05:21:09.739Z,18.13
2019-05-29T05:23:40.289Z,18.17
2019-05-29T05:26:10.073Z,18.18
2019-05-29T05:28:42.235Z,18.25
2019-05-29T05:31:10.595Z,18.31
2019-05-29T05:33:41.037Z,18.29
2019-05-29T05:36:10.535Z,18.33
2019-05-29T05:38:41.095Z,18.18
2019-05-29T05:41:10.734Z,18.25
2019-05-29T05:43:41.325Z,18.23
2019-05-29T05:46:11.115Z,18.28
2019-05-29T05:48:41.570Z,18.41
2019-05-29T05:51:11.182Z,18.58
2019-05-29T05:53:41.751Z,18.61
2019-05-29T05:56:11.324Z,18.68
2019-05-29T05:58:41.983Z,18.74
2019-05-29T06:01:11.780Z,18.73
2019-05-29T06:03:42.434Z,18.77
2019-05-29T06:06:12.218Z,18.93
2019-05-29T06:08:42.500Z,18.81
2019-05-29T06:11:12.216Z,18.83
2019-05-29T06:13:42.762Z,18.98
2019-05-29T06:16:12.592Z,19.10
2019-05-29T06:18:43.173Z,19.03
2019-05-29T06:21:12.785Z,19.24
2019-05-29T06:23:43.548Z,19.26
2019-05-29T06:26:13.258Z,19.32
2019-05-29T06:28:43.438Z,19.40
2019-05-29T06:31:12.961Z,19.60
2019-05-29T06:33:43.674Z,19.67
2019-05-29T06:36:13.480Z,19.66
2019-05-29T06:38:44.382Z,19.68
2019-05-29T06:41:13.983Z,19.74
2019-05-29T06:43:44.311Z,19.83
2019-05-29T06:46:14.117Z,19.83
2019-05-29T06:48:57.615Z,19.93
2019-05-29T06:51:14.598Z,19.98
2019-05-29T06:53:44.229Z,20.00
2019-05-29T06:56:13.843Z,19.95
2019-05-29T06:58:44.374Z,20.11
2019-05-29T07:01:13.894Z,20.29
2019-05-29T07:03:43.975Z,20.32
2019-05-29T07:06:13.611Z,20.39
2019-05-29T07:08:46.506Z,20.30
2019-05-29T07:11:14.172Z,20.41
2019-05-29T07:13:47.148Z,20.56
2019-05-29T07:16:14.658Z,20.61
2019-05-29T07:19:20.526Z,20.79
2019-05-29T07:21:15.148Z,20.93
2019-05-29T07:23:46.450Z,20.99
2019-05-29T07:26:15.714Z,20.92
2019-05-29T07:29:02.013Z,20.96
2019-05-29T07:31:16.210Z,21.18
2019-05-29T07:33:45.660Z,21.27
2019-05-29T07:36:15.151Z,21.42
2019-05-29T07:38:54.831Z,21.49
2019-05-29T07:41:15.607Z,21.68
2019-05-29T07:43:45.926Z,21.88
2019-05-29T07:46:15.438Z,21.97
2019-05-29T07:48:47.440Z,22.00
2019-05-29T07:51:16.120Z,22.02
2019-05-29T07:53:46.439Z,22.13
2019-05-29T07:56:22.770Z,22.17
2019-05-29T07:58:57.120Z,22.38
2019-05-29T08:01:18.265Z,22.40
2019-05-29T08:03:47.653Z,22.60
2019-05-29T08:06:17.046Z,22.81
2019-05-29T08:08:47.479Z,22.98
2019-05-29T08:11:16.952Z,23.07
2019-05-29T08:13:46.330Z,23.18
2019-05-29T08:16:15.698Z,23.21
2019-05-29T08:18:47.264Z,23.28
2019-05-29T08:21:16.242Z,23.31
2019-05-29T08:23:46.404Z,23.42
2019-05-29T08:26:15.888Z,23.42
2019-05-29T08:28:45.271Z,23.53
2019-05-29T08:31:14.961Z,23.55
2019-05-29T08:33:44.878Z,23.58
2019-05-29T08:36:14.369Z,23.79
2019-05-29T08:38:44.541Z,23.96
2019-05-29T08:41:14.856Z,24.14
2019-05-29T08:43:45.228Z,24.02
2019-05-29T08:46:15.121Z,24.28
2019-05-29T08:48:45.781Z,24.27
2019-05-29T08:51:15.308Z,24.58
2019-05-29T08:53:46.316Z,24.31
2019-05-29T08:56:15.941Z,24.45
2019-05-29T08:58:46.285Z,24.52
2019-05-29T09:01:15.884Z,24.62
2019-05-29T09:03:46.657Z,24.60
2019-05-29T09:06:16.257Z,24.58
2019-05-29T09:08:46.661Z,24.66
2019-05-29T09:11:16.747Z,24.57
2019-05-29T09:13:46.125Z,24.42
2019-05-29T09:16:15.511Z,24.47
2019-05-29T09:18:44.901Z,24.30
2019-05-29T09:21:15.681Z,24.46
2019-05-29T09:23:45.673Z,24.69
2019-05-29T09:26:19.814Z,24.80
2019-05-29T09:28:46.175Z,24.84
2019-05-29T09:31:16.901Z,24.96
2019-05-29T09:33:46.774Z,24.96
2019-05-29T09:36:17.178Z,25.22
2019-05-29T09:38:47.371Z,25.42
2019-05-29T09:41:17.438Z,25.53
2019-05-29T09:43:58.126Z,25.65
2019-05-29T09:46:18.644Z,25.65
2019-05-29T09:48:50.291Z,25.62
2019-05-29T09:51:21.521Z,25.42
2019-05-29T09:53:52.550Z,24.90
2019-05-29T09:56:22.257Z,24.63
2019-05-29T09:58:53.667Z,24.59
2019-05-29T10:01:24.918Z,24.51
2019-05-29T10:03:56.399Z,24.46
2019-05-29T10:06:25.042Z,24.31
2019-05-29T10:08:56.059Z,24.41
2019-05-29T10:11:25.685Z,24.69
2019-05-29T10:13:56.544Z,24.86
2019-05-29T10:16:26.345Z,25.05
2019-05-29T10:18:57.316Z,25.35
2019-05-29T10:21:39.099Z,25.43
2019-05-29T10:24:01.248Z,25.70
2019-05-29T10:26:31.153Z,26.01
2019-05-29T10:29:07.396Z,26.18
2019-05-29T10:31:31.630Z,26.03
2019-05-29T10:34:01.083Z,25.73
2019-05-29T10:36:30.446Z,25.81
2019-05-29T10:38:59.858Z,25.85
2019-05-29T10:41:29.252Z,25.81
2019-05-29T10:44:01.425Z,25.95
2019-05-29T10:46:30.812Z,25.90
2019-05-29T10:49:04.331Z,25.97
2019-05-29T10:51:31.427Z,26.06
2019-05-29T10:54:00.851Z,26.09
2019-05-29T10:56:30.326Z,26.35
2019-05-29T10:59:00.371Z,26.15
2019-05-29T11:01:30.085Z,26.36
2019-05-29T11:03:59.527Z,26.33
2019-05-29T11:06:29.388Z,25.76
2019-05-29T11:08:59.042Z,26.09
2019-05-29T11:11:28.451Z,25.43
2019-05-29T11:13:57.897Z,25.52
2019-05-29T11:16:27.307Z,25.49
2019-05-29T11:18:57.589Z,25.54
2019-05-29T11:21:27.428Z,25.45
2019-05-29T11:23:58.240Z,25.48
2019-05-29T11:26:27.834Z,25.29
2019-05-29T11:28:58.628Z,24.97
2019-05-29T11:31:31.449Z,25.23
2019-05-29T11:34:05.156Z,25.30
2019-05-29T11:36:34.767Z,25.22
2019-05-29T11:39:06.422Z,25.05
2019-05-29T11:41:35.987Z,25.42
2019-05-29T11:44:05.449Z,25.68
2019-05-29T11:46:35.232Z,25.90
2019-05-29T11:49:05.017Z,25.99
2019-05-29T11:51:35.044Z,25.97
2019-05-29T11:54:05.002Z,26.08
2019-05-29T11:56:34.756Z,26.59
2019-05-29T11:59:04.694Z,27.57
2019-05-29T12:01:49.120Z,27.59
2019-05-29T12:04:22.888Z,27.80
2019-05-29T12:06:36.732Z,28.02
2019-05-29T12:09:09.591Z,28.32
2019-05-29T12:11:39.122Z,28.13
2019-05-29T12:14:08.574Z,28.14
2019-05-29T12:16:37.925Z,28.35
2019-05-29T12:19:07.339Z,28.26
2019-05-29T12:21:36.727Z,28.01
2019-05-29T12:24:06.133Z,27.95
2019-05-29T12:26:35.600Z,27.45
2019-05-29T12:29:11.361Z,27.34
2019-05-29T12:31:36.334Z,27.78
2019-05-29T12:34:17.968Z,28.11
2019-05-29T12:36:36.933Z,28.12
2019-05-29T12:39:08.808Z,27.66
2019-05-29T12:41:38.684Z,27.77
2019-05-29T12:44:08.179Z,28.41
2019-05-29T12:46:37.669Z,29.11
2019-05-29T12:49:07.099Z,29.12
2019-05-29T12:51:36.526Z,28.70
2019-05-29T12:54:06.076Z,28.67
2019-05-29T12:56:35.643Z,28.24
2019-05-29T12:59:05.339Z,27.52
2019-05-29T13:01:34.741Z,27.48
2019-05-29T13:04:04.788Z,27.31
2019-05-29T13:06:34.383Z,26.53
2019-05-29T13:09:05.829Z,26.71
2019-05-29T13:11:35.299Z,26.61
2019-05-29T13:14:05.006Z,26.62
2019-05-29T13:16:34.448Z,26.64
2019-05-29T13:19:05.190Z,26.75
2019-05-29T13:21:34.862Z,26.05
2019-05-29T13:24:09.839Z,26.25
2019-05-29T13:26:35.613Z,26.33
2019-05-29T13:29:06.046Z,26.03
2019-05-29T13:31:35.731Z,26.15
2019-05-29T13:34:07.148Z,26.38
2019-05-29T13:36:36.572Z,26.58
2019-05-29T13:39:07.638Z,26.65
2019-05-29T13:41:37.083Z,26.49
2019-05-29T13:44:06.956Z,26.54
2019-05-29T13:46:36.642Z,26.73
2019-05-29T13:49:07.154Z,26.63
2019-05-29T13:51:36.813Z,26.94
2019-05-29T13:54:13.287Z,26.85
2019-05-29T13:56:37.447Z,26.75
2019-05-29T13:59:08.277Z,26.80
2019-05-29T14:01:38.033Z,26.96
2019-05-29T14:04:08.631Z,26.91
2019-05-29T14:06:38.223Z,26.90
2019-05-29T14:09:09.916Z,26.79
2019-05-29T14:11:39.770Z,26.94
2019-05-29T14:14:11.310Z,26.91
2019-05-29T14:16:40.473Z,26.91
2019-05-29T14:19:09.986Z,26.88
2019-05-29T14:21:39.446Z,26.92
2019-05-29T14:24:26.181Z,27.28
2019-05-29T14:26:40.257Z,27.66
2019-05-29T14:29:10.089Z,27.77
2019-05-29T14:31:39.545Z,27.78
2019-05-29T14:34:09.499Z,27.73
2019-05-29T14:36:39.432Z,27.81
2019-05-29T14:39:09.978Z,27.67
2019-05-29T14:41:40.013Z,27.39
2019-05-29T14:44:09.976Z,27.44
2019-05-29T14:46:39.480Z,27.47
2019-05-29T14:49:08.864Z,27.50
2019-05-29T14:51:38.349Z,27.43
2019-05-29T14:54:08.877Z,27.77
2019-05-29T14:56:38.375Z,28.49
2019-05-29T14:59:09.286Z,29.55
2019-05-29T15:01:38.841Z,30.25
2019-05-29T15:04:09.494Z,30.98
2019-05-29T15:06:38.952Z,31.95
2019-05-29T15:09:09.624Z,32.19
2019-05-29T15:11:39.067Z,32.24
2019-05-29T15:14:08.434Z,32.22
2019-05-29T15:16:37.945Z,31.67
2019-05-29T15:19:08.914Z,31.51
2019-05-29T15:21:38.504Z,32.07
2019-05-29T15:24:09.225Z,32.23
2019-05-29T15:26:39.030Z,32.36
2019-05-29T15:29:08.511Z,31.78
2019-05-29T15:31:37.890Z,30.82
2019-05-29T15:34:08.186Z,29.70
2019-05-29T15:36:37.643Z,29.52
2019-05-29T15:39:08.621Z,29.44
2019-05-29T15:41:38.500Z,28.89
2019-05-29T15:44:08.799Z,28.46
2019-05-29T15:46:38.855Z,28.16
2019-05-29T15:49:11.112Z,26.75
2019-05-29T15:51:40.512Z,25.55
2019-05-29T15:54:11.100Z,25.79
2019-05-29T15:56:40.760Z,26.10
2019-05-29T15:59:12.120Z,26.25
2019-05-29T16:01:41.248Z,26.50
2019-05-29T16:04:11.687Z,26.42
2019-05-29T16:06:41.123Z,26.03
2019-05-29T16:09:12.178Z,26.11
2019-05-29T16:11:41.696Z,25.83
2019-05-29T16:14:12.909Z,25.18
2019-05-29T16:16:42.511Z,24.50
2019-05-29T16:19:12.137Z,24.17
2019-05-29T16:21:41.693Z,23.79
2019-05-29T16:24:14.976Z,23.63
2019-05-29T16:26:44.396Z,23.57
2019-05-29T16:29:16.409Z,24.09
2019-05-29T16:31:46.460Z,24.42
2019-05-29T16:34:18.390Z,24.89
2019-05-29T16:36:46.978Z,25.40
2019-05-29T16:39:19.239Z,25.36
2019-05-29T16:41:47.645Z,24.98
2019-05-29T16:44:18.212Z,24.94
2019-05-29T16:46:47.739Z,24.83
2019-05-29T16:49:17.173Z,24.51
2019-05-29T16:51:46.573Z,24.77
2019-05-29T16:54:17.201Z,24.80
2019-05-29T16:56:46.757Z,24.66
2019-05-29T16:59:17.018Z,24.75
2019-05-29T17:01:46.470Z,24.87
2019-05-29T17:04:15.906Z,24.83
2019-05-29T17:06:45.365Z,24.55
2019-05-29T17:09:16.134Z,24.24
2019-05-29T17:11:45.849Z,24.20
2019-05-29T17:14:16.389Z,24.05
2019-05-29T17:16:46.127Z,23.68
2019-05-29T17:19:16.601Z,23.71
2019-05-29T17:21:46.047Z,23.65
2019-05-29T17:24:16.561Z,23.49
2019-05-29T17:26:46.008Z,23.69
2019-05-29T17:29:16.904Z,23.46
2019-05-29T17:31:46.702Z,23.11
2019-05-29T17:34:16.980Z,22.69
2019-05-29T17:36:49.071Z,22.63
2019-05-29T17:39:19.942Z,22.42
2019-05-29T17:41:49.816Z,22.27
2019-05-29T17:44:19.459Z,22.09
2019-05-29T17:46:48.865Z,22.00
2019-05-29T17:49:20.753Z,21.82
2019-05-29T17:51:49.413Z,21.74
2019-05-29T17:54:19.743Z,21.63
2019-05-29T17:56:49.326Z,21.54
2019-05-29T17:59:20.039Z,21.45
2019-05-29T18:01:49.505Z,21.27
2019-05-29T18:04:20.278Z,21.15
2019-05-29T18:06:49.992Z,21.04
2019-05-29T18:09:19.500Z,20.87
2019-05-29T18:11:50.771Z,20.86
2019-05-29T18:14:21.163Z,20.81
2019-05-29T18:16:50.975Z,20.78
2019-05-29T18:19:21.673Z,20.68
2019-05-29T18:21:51.235Z,20.65
2019-05-29T18:24:21.623Z,20.57
2019-05-29T18:26:51.096Z,20.51
2019-05-29T18:29:20.575Z,20.49
2019-05-29T18:31:49.984Z,20.43
2019-05-29T18:34:20.729Z,20.36
2019-05-29T18:36:50.778Z,20.40
2019-05-29T18:39:20.267Z,20.40
2019-05-29T18:41:49.710Z,20.40
2019-05-29T18:44:20.727Z,20.40
2019-05-29T18:46:50.287Z,20.39
2019-05-29T18:49:20.361Z,20.32
2019-05-29T18:51:52.049Z,20.22
2019-05-29T18:54:21.718Z,20.23
2019-05-29T18:57:13.995Z,20.15
2019-05-29T18:59:23.280Z,20.10
2019-05-29T19:01:52.841Z,20.08
2019-05-29T19:04:23.423Z,20.07
2019-05-29T19:06:52.875Z,20.03
2019-05-29T19:09:25.678Z,20.07
2019-05-29T19:11:55.318Z,20.11
2019-05-29T19:14:25.745Z,20.09
2019-05-29T19:16:55.342Z,20.06
2019-05-29T19:19:26.066Z,20.05
2019-05-29T19:21:55.576Z,20.04
2019-05-29T19:24:24.979Z,19.92
2019-05-29T19:26:54.509Z,19.85
2019-05-29T19:29:24.894Z,19.84
2019-05-29T19:31:54.427Z,19.80
2019-05-29T19:34:23.816Z,19.78
2019-05-29T19:36:53.278Z,19.67
2019-05-29T19:39:23.742Z,19.69
2019-05-29T19:41:53.194Z,19.57
2019-05-29T19:44:22.624Z,19.48
2019-05-29T19:46:54.004Z,19.48
2019-05-29T19:49:23.129Z,19.42
2019-05-29T19:51:52.549Z,19.37
2019-05-29T19:54:21.934Z,19.25
2019-05-29T19:56:51.317Z,19.18
2019-05-29T19:59:20.781Z,19.12
2019-05-29T20:01:50.198Z,18.99
2019-05-29T20:04:19.725Z,18.92
2019-05-29T20:06:49.087Z,18.86
2019-05-29T20:09:18.442Z,18.88
2019-05-29T20:11:47.783Z,18.85
2019-05-29T20:14:17.282Z,18.76
2019-05-29T20:16:46.727Z,18.79
2019-05-29T20:19:16.169Z,18.83
2019-05-29T20:21:45.581Z,18.76
2019-05-29T20:24:15.048Z,18.81
2019-05-29T20:26:44.423Z,18.71
2019-05-29T20:29:13.820Z,18.62
2019-05-29T20:31:45.799Z,18.49
2019-05-29T20:34:15.294Z,18.42
2019-05-29T20:36:44.704Z,18.33
2019-05-29T20:39:14.133Z,18.32
2019-05-29T20:41:43.692Z,18.30
2019-05-29T20:44:13.078Z,18.24
2019-05-29T20:46:42.814Z,18.20
2019-05-29T20:49:13.787Z,18.16
2019-05-29T20:51:43.302Z,18.09
2019-05-29T20:54:12.680Z,18.09
2019-05-29T20:56:42.139Z,18.03
2019-05-29T20:59:11.625Z,18.02
2019-05-29T21:01:46.050Z,17.93
2019-05-29T21:04:12.275Z,17.91
2019-05-29T21:07:03.829Z,17.92
2019-05-29T21:09:33.358Z,17.87
2019-05-29T21:12:05.585Z,17.85
2019-05-29T21:14:35.555Z,17.86
2019-05-29T21:17:09.755Z,17.85
2019-05-29T21:19:40.238Z,17.84
2019-05-29T21:22:09.807Z,17.86
2019-05-29T21:24:40.616Z,17.84
2019-05-29T21:27:10.301Z,17.85
2019-05-29T21:29:39.669Z,17.86
2019-05-29T21:32:09.114Z,17.89
2019-05-29T21:34:41.906Z,17.87
2019-05-29T21:37:11.496Z,17.81
2019-05-29T21:39:40.925Z,17.78
2019-05-29T21:42:10.296Z,17.84
2019-05-29T21:44:40.683Z,17.86
2019-05-29T21:47:10.140Z,17.83
2019-05-29T21:49:39.564Z,17.88
2019-05-29T21:52:09.228Z,17.87
2019-05-29T21:54:39.348Z,17.81
2019-05-29T21:57:08.814Z,17.91
2019-05-29T21:59:38.255Z,17.86
2019-05-29T22:02:08.047Z,17.84
2019-05-29T22:04:38.415Z,17.87
2019-05-29T22:07:07.977Z,17.90
2019-05-29T22:09:37.328Z,17.99
2019-05-29T22:12:06.793Z,17.95
2019-05-29T22:14:36.222Z,18.00
2019-05-29T22:17:05.883Z,18.01
2019-05-29T22:19:35.325Z,17.96
2019-05-29T22:22:04.694Z,17.94
2019-05-29T22:24:34.194Z,17.89
2019-05-29T22:27:04.623Z,17.84
2019-05-29T22:29:34.277Z,17.83
2019-05-29T22:32:04.703Z,17.87
2019-05-29T22:34:34.114Z,17.97
2019-05-29T22:37:03.492Z,17.97
2019-05-29T22:39:32.951Z,17.99
2019-05-29T22:42:02.497Z,17.96
2019-05-29T22:44:31.898Z,18.06
2019-05-29T22:47:02.032Z,18.11
2019-05-29T22:49:31.526Z,18.06
2019-05-29T22:52:02.173Z,18.04
2019-05-29T22:54:31.725Z,18.02
2019-05-29T22:57:02.134Z,18.00
2019-05-29T22:59:32.430Z,17.99
2019-05-29T23:02:02.614Z,17.96
2019-05-29T23:04:31.965Z,17.95
2019-05-29T23:07:02.476Z,17.98
2019-05-29T23:09:31.978Z,17.93
2019-05-29T23:12:02.453Z,17.90
2019-05-29T23:14:32.018Z,17.86
2019-05-29T23:17:02.616Z,17.83
2019-05-29T23:19:32.184Z,17.79
2019-05-29T23:22:02.759Z,17.79
2019-05-29T23:24:32.307Z,17.79
2019-05-29T23:27:02.936Z,17.79
2019-05-29T23:29:47.992Z,17.80
2019-05-29T23:32:05.031Z,17.86
2019-05-29T23:34:34.477Z,17.85
2019-05-29T23:37:03.823Z,17.82
2019-05-29T23:39:33.357Z,17.77
2019-05-29T23:42:03.607Z,17.77
2019-05-29T23:44:33.231Z,17.76
2019-05-29T23:47:04.167Z,17.77
2019-05-29T23:49:33.641Z,17.72
2019-05-29T23:52:04.878Z,17.75
2019-05-29T23:54:34.224Z,17.81
2019-05-29T23:57:04.151Z,17.84
2019-05-29T23:59:33.708Z,17.82
